• Join FlightAware (Why Join?)
  • Login
  • US Flag 
04:24AM EDT


 

Airport Tracker/Info


-or-


 

Live Flight TrackerFlight Track Log ✈ AWE3418 ✈ 11-Apr-2013 ✈ KCMH - KPHL

Flight Track Log - Related Links

Times and Time Zones

All times are in EDT time to prevent confusion due to time zone crossing. See the AWE3418 flight status page for this flight to view local times or setup timezone preferences in your user account.

Time Position Orientation Groundspeed Altitude Reporting Facility
EDT Latitude Longitude Course Direction KTS MPH feet Rate Location/Type
04:20PM 39.9994 -82.8608 81° East 149 171 31,000  Level Indianapolis Center
04:21PM 40.0008 -82.8092 88° East 194 223 2,600 -27,120 Descending Indianapolis Center
04:21PM 40.0025 -82.7931 82° East 203 234 3,000 2,220 Climbing Indianapolis Center
04:22PM 40.0384 -82.4831 83° East  Level FlightAware Approximate
04:22PM 40.0044 -82.6919 89° East 264 304 5,600  Level Indianapolis Center
04:23PM 40.0529 -82.3481 79° East  Level FlightAware Approximate
04:23PM 40.0083 -82.5872 87° East 287 330 9,000  Level Indianapolis Center
04:24PM 40.0735 -82.2144 79° East  Level FlightAware Approximate
04:24PM 40.0161 -82.4597 85° East 300 345 12,200  Level Indianapolis Center
04:25PM 40.0973 -82.0390 81° East  Level FlightAware Approximate
04:25PM 40.0208 -82.3386 87° East 331 381 14,200  Level Indianapolis Center
04:26PM 40.1135 -81.9090 81° East  Level FlightAware Approximate
04:26PM 40.0367 -82.2061 81° East 364 419 16,500  Level Indianapolis Center
04:27PM 40.0564 -82.0706 79° East 376 433 19,100 2,220 Climbing Indianapolis Center
04:29PM 40.0758 -81.9317 80° East 384 442 21,100 1,980 Climbing Indianapolis Center
04:30PM 40.0986 -81.7739 79° East 400 460 23,200 1,740 Climbing Indianapolis Center
04:31PM 40.1200 -81.6211 80° East 419 482 24,700 1,500 Climbing Indianapolis Center
04:32PM 40.1400 -81.4650 80° East 431 496 26,300 1,500 Climbing Indianapolis Center
04:32PM 40.1606 -81.3356 78° East 430 495 27,500 1,380 Climbing Cleveland Center
04:33PM 40.1969 -81.1836 73° East 430 495 28,900 1,200 Climbing Cleveland Center
04:34PM 40.2103 -81.0208 84° East 430 495 30,000 540 Climbing Cleveland Center
04:35PM 40.2189 -80.8578 86° East 441 507 30,000 480 Level Cleveland Center
04:36PM 40.2297 -80.6728 86° East 455 524 31,000 480 Climbing Cleveland Center
04:37PM 40.2381 -80.5097 86° East 455 524 31,000  Level Cleveland Center
04:38PM 40.2483 -80.3436 85° East 455 524 31,000  Level Cleveland Center
04:39PM 40.2542 -80.1806 87° East 455 524 31,000  Level Cleveland Center
04:40PM 40.2617 -80.0172 87° East 455 524 31,000  Level Cleveland Center
04:41PM 40.2733 -79.8539 85° East 455 524 31,000  Level Cleveland Center
04:42PM 40.2806 -79.6931 87° East 450 518 31,000  Level Cleveland Center
04:43PM 40.2875 -79.5325 87° East 445 512 31,000 -540 Level Cleveland Center
04:44PM 40.2964 -79.3692 86° East 440 506 30,000 -1,200 Descending Cleveland Center
04:45PM 40.3006 -79.2056 88° East 440 506 28,600 -1,440 Descending Cleveland Center
04:46PM 40.3086 -79.0231 87° East 465 535 27,200 -840 Descending Cleveland Center
04:47PM 40.3144 -78.8431 88° East 489 563 27,000 -120 Descending Cleveland Center
04:48PM 40.3136 -78.6608 90° East 495 570 27,000  Level Cleveland Center
04:49PM 40.3147 -78.4836 89° East 495 570 27,000  Level Cleveland Center
04:51PM 40.3131 -78.1703 90° East 512 589 27,000 -720 Level New York Center
04:52PM 40.3117 -77.9903 91° East 501 577 25,100 -1,260 Descending New York Center
04:53PM 40.3119 -77.8158 90° East 496 571 24,500 -1,560 Descending New York Center
04:54PM 40.3094 -77.6442 91° East 484 557 22,000 -2,280 Descending New York Center
04:55PM 40.2981 -77.4769 95° East 473 544 19,900 -1,680 Descending New York Center
04:56PM 40.2769 -77.3361 101° East 449 517 18,700 -1,320 Descending New York Center
04:57PM 40.2528 -77.1678 101° East 438 504 17,300 -900 Descending New York Center
04:58PM 40.2333 -77.0272 100° East 438 504 17,000 -780 Descending New York Center
04:59PM 40.2067 -76.8592 102° East 438 504 15,800 -1,440 Descending New York Center
05:00PM 40.1850 -76.7078 101° East 433 498 14,300 -1,500 Descending New York Center
05:01PM 40.1644 -76.5783 102° East 411 473 12,900 -1,560 Descending New York Center
05:02PM 40.1408 -76.4214 101° East 396 456 11,200 -1,020 Descending New York Center
05:03PM 40.1203 -76.2842 101° East 391 450 10,900 -120 Descending New York Center
05:04PM 40.1106 -76.1617 96° East 392 451 11,000 60 Climbing FAA TRACON SMA TRACON (SMA)
05:04PM 40.1081 -76.1175 94° East 393 452 11,000  Level FAA TRACON SMA TRACON (SMA)
05:05PM 40.1039 -76.0692 96° East 391 450 11,000  Level FAA TRACON SMA TRACON (SMA)
05:05PM 40.1019 -76.0203 93° East 392 451 11,000  Level FAA TRACON SMA TRACON (SMA)
05:05PM 40.0975 -75.9764 98° East 390 449 11,000 -1,080 Level FAA TRACON SMA TRACON (SMA)
05:06PM 40.0944 -75.9231 94° East 384 442 10,300 -1,680 Descending FAA TRACON SMA TRACON (SMA)
05:06PM 40.0914 -75.8831 96° East 359 413 9,900 -1,200 Descending FAA TRACON SMA TRACON (SMA)
05:06PM 40.0900 -75.8461 93° East 337 388 9,500 -1,800 Descending FAA TRACON SMA TRACON (SMA)
05:07PM 40.0856 -75.7997 97° East 327 376 8,700 -2,040 Descending FAA TRACON SMA TRACON (SMA)
05:07PM 40.0836 -75.7639 94° East 323 372 8,200 -1,080 Descending FAA TRACON SMA TRACON (SMA)
05:07PM 40.0811 -75.7300 95° East 317 365 8,000 -300 Descending FAA TRACON SMA TRACON (SMA)
05:08PM 40.0883 -75.6875 77° East 302 348 8,000  Level FAA TRACON SMA TRACON (SMA)
05:08PM 40.1075 -75.6614 46° Northeast 305 351 8,000  Level FAA TRACON SMA TRACON (SMA)
05:08PM 40.1325 -75.6511 17° North 302 348 8,000  Level FAA TRACON SMA TRACON (SMA)
05:09PM 40.1597 -75.6367 22° Northeast 278 320 8,000  Level FAA TRACON SMA TRACON (SMA)
05:09PM 40.1789 -75.6261 23° Northeast 238 274 8,000  Level FAA TRACON SMA TRACON (SMA)
05:09PM 40.1972 -75.6158 23° Northeast 230 265 8,000  Level FAA TRACON SMA TRACON (SMA)
05:10PM 40.2183 -75.6039 23° Northeast 233 268 8,000  Level FAA TRACON SMA TRACON (SMA)
05:10PM 40.2392 -75.5922 23° Northeast 233 268 8,000  Level FAA TRACON SMA TRACON (SMA)
05:10PM 40.2522 -75.5722 49° Northeast 240 276 8,000  Level FAA TRACON SMA TRACON (SMA)
05:11PM 40.2517 -75.5461 92° East 244 281 8,000  Level FAA TRACON SMA TRACON (SMA)
05:11PM 40.2353 -75.5236 134° Southeast 222 255 8,000 -300 Level FAA TRACON SMA TRACON (SMA)
05:11PM 40.2203 -75.5089 143° Southeast 216 249 7,800 -780 Descending FAA TRACON SMA TRACON (SMA)
05:12PM 40.2042 -75.4989 155° Southeast 210 242 7,500 -1,080 Descending FAA TRACON SMA TRACON (SMA)
05:12PM 40.1833 -75.4872 157° South 213 245 7,100 -780 Descending FAA TRACON SMA TRACON (SMA)
05:12PM 40.1661 -75.4772 156° South 215 247 7,000 -180 Descending FAA TRACON SMA TRACON (SMA)
05:13PM 40.1494 -75.4667 154° Southeast 215 247 7,000 -480 Level FAA TRACON SMA TRACON (SMA)
05:13PM 40.1286 -75.4544 156° South 213 245 6,700 -900 Descending FAA TRACON SMA TRACON (SMA)
05:13PM 40.1133 -75.4461 157° South 213 245 6,400 -1,080 Descending FAA TRACON SMA TRACON (SMA)
05:14PM 40.0939 -75.4336 154° Southeast 212 244 6,000 -600 Descending FAA TRACON SMA TRACON (SMA)
05:14PM 40.0742 -75.4233 158° South 213 245 6,000  Level FAA TRACON SMA TRACON (SMA)
05:14PM 40.0569 -75.4158 162° South 211 243 6,000  Level FAA TRACON SMA TRACON (SMA)
05:15PM 40.0394 -75.4108 168° South 214 246 6,000  Level FAA TRACON SMA TRACON (SMA)
05:15PM 40.0175 -75.4042 167° South 209 241 6,000  Level FAA TRACON SMA TRACON (SMA)
05:15PM 40.0011 -75.3989 166° South 207 238 6,000  Level FAA TRACON SMA TRACON (SMA)
05:16PM 39.9836 -75.3928 165° South 208 239 6,000  Level FAA TRACON SMA TRACON (SMA)
05:16PM 39.9608 -75.3869 169° South 209 241 6,000  Level FAA TRACON SMA TRACON (SMA)
05:16PM 39.9436 -75.3894 186° South 211 243 6,000  Level FAA TRACON SMA TRACON (SMA)
05:17PM 39.9308 -75.4039 221° Southwest 202 232 6,000  Level FAA TRACON SMA TRACON (SMA)
05:17PM 39.9239 -75.4294 250° West 192 221 6,000  Level FAA TRACON SMA TRACON (SMA)
05:17PM 39.9194 -75.4503 254° West 201 231 6,000  Level FAA TRACON SMA TRACON (SMA)
05:18PM 39.9142 -75.4725 253° West 201 231 6,000 -600 Level FAA TRACON SMA TRACON (SMA)
05:18PM 39.9078 -75.4989 252° West 199 229 5,600 -1,080 Descending FAA TRACON SMA TRACON (SMA)
05:18PM 39.9031 -75.5200 254° West 199 229 5,300 -900 Descending FAA TRACON SMA TRACON (SMA)
05:19PM 39.8986 -75.5408 254° West 196 226 5,000 -480 Descending FAA TRACON SMA TRACON (SMA)
05:19PM 39.8942 -75.5669 257° West 195 224 5,000  Level FAA TRACON SMA TRACON (SMA)
05:19PM 39.8889 -75.5883 252° West 196 226 5,000  Level FAA TRACON SMA TRACON (SMA)
05:20PM 39.8844 -75.6092 254° West 196 226 5,000  Level FAA TRACON SMA TRACON (SMA)
05:20PM 39.8792 -75.6356 255° West 195 224 5,000  Level FAA TRACON SMA TRACON (SMA)
05:20PM 39.8744 -75.6567 254° West 196 226 5,000 -480 Level FAA TRACON SMA TRACON (SMA)
05:21PM 39.8586 -75.6714 216° Southwest 196 226 4,700 -900 Descending FAA TRACON SMA TRACON (SMA)
05:21PM 39.8422 -75.6744 188° South 182 209 4,400 -900 Descending FAA TRACON SMA TRACON (SMA)
05:21PM 39.8258 -75.6769 187° South 195 224 4,100 -600 Descending FAA TRACON SMA TRACON (SMA)
05:22PM 39.8117 -75.6675 153° Southeast 191 220 4,000 -180 Descending FAA TRACON SMA TRACON (SMA)
05:22PM 39.8044 -75.6411 110° East 204 235 4,000  Level FAA TRACON SMA TRACON (SMA)
05:22PM 39.8006 -75.6197 103° East 202 232 4,000  Level FAA TRACON SMA TRACON (SMA)
05:23PM 39.7972 -75.5964 101° East 205 236 4,000  Level FAA TRACON SMA TRACON (SMA)
05:23PM 39.8019 -75.5692 77° East 196 226 4,000  Level FAA TRACON SMA TRACON (SMA)
05:23PM 39.8061 -75.5483 75° East 193 222 4,000 -180 Level FAA TRACON SMA TRACON (SMA)
05:24PM 39.8103 -75.5278 75° East 194 223 3,900 -600 Descending FAA TRACON SMA TRACON (SMA)
05:24PM 39.8150 -75.5031 76° East 192 221 3,600 -900 Descending FAA TRACON SMA TRACON (SMA)
05:24PM 39.8192 -75.4819 76° East 187 215 3,300 -900 Descending FAA TRACON SMA TRACON (SMA)
05:25PM 39.8231 -75.4631 75° East 185 213 3,000 -900 Descending FAA TRACON SMA TRACON (SMA)
05:25PM 39.8278 -75.4394 75° East 174 200 2,700 -900 Descending FAA TRACON SMA TRACON (SMA)
05:25PM 39.8311 -75.4222 76° East 161 185 2,400 -900 Descending FAA TRACON SMA TRACON (SMA)